Pagina principale
METAR-TAF:

METAR-TAF

Aeroporti :

Aeroporto di Pola

Pola, Croazia

latitudine: 44-54N, longitudine: 013-55E, altezza: 63 m

Osservazione

Il bollettino è stato emesso 21 minuti fa, alle 20:30 UTC
Vento 9 kt da est/nord-est
Temperature 17°C
Umidità 59%
Pressione 1018 hPa
Visibilità 10 km o più
nessuna nube inferiore a 1500 m e nessun cumulonembo

METAR: LDPL 222030Z 06009KT CAVOK 17/09 Q1018 NOSIG

Ora: 22:51 (20:51 UTC)

Previsione

Il bollettino è stato emesso 3 ore e 26 minuti fa, alle 17:25 UTC
Previsione valida dal 22 alle 18 UTC al 23 alle 18 UTC
Vento 12 kt da est/nord-est
Visibilità 10 km o più
nessuna nube inferiore a 1500 m e nessun cumulonembo
Temporaneamente
dal 23 alle 12 UTC al 23 alle 18 UTC
Vento 8 kt da ovest/nord-ovest

TAF: LDPL 221725Z 2218/2318 07012KT CAVOK TX22/2312Z TN15/2303Z TEMPO 2312/2318 30008KT

Osservazioni e previsioni meteorologiche di più di 4000 aeroporti (messaggi METAR e TAF).

Le stazioni disponibili sono rappresentate dai dischi gialli e rossi sulla carta.

Puntare il mouse per vedere il nome della stazione.

Clicca sopra per visualizzare le osservazioni e previsioni meteorologiche.

Per cambiare la mappa : fare clic sui pulsanti verdi con una croce nera per ingrandire, il pulsante verde con un trattino per diminuire, o sulla freccia verde per le mappe adiacenti.


METAR-TAF: